sensor_id;sensor_type;location;lat;lon;timestamp;temperature;humidity
78345;DHT22;67620;51.134;6.548;2023-03-01T00:01:47;1.70;59.10
78345;DHT22;67620;51.134;6.548;2023-03-01T00:04:13;1.70;59.20
78345;DHT22;67620;51.134;6.548;2023-03-01T00:06:38;1.70;59.10
78345;DHT22;67620;51.134;6.548;2023-03-01T00:09:04;1.70;59.20
78345;DHT22;67620;51.134;6.548;2023-03-01T00:11:31;1.70;59.20
78345;DHT22;67620;51.134;6.548;2023-03-01T00:13:59;1.70;59.30
78345;DHT22;67620;51.134;6.548;2023-03-01T00:16:29;1.70;59.30
78345;DHT22;67620;51.134;6.548;2023-03-01T00:18:56;1.70;59.30
78345;DHT22;67620;51.134;6.548;2023-03-01T00:21:22;1.60;59.40
78345;DHT22;67620;51.134;6.548;2023-03-01T00:23:49;1.60;59.40
78345;DHT22;67620;51.134;6.548;2023-03-01T00:26:16;1.60;59.50
78345;DHT22;67620;51.134;6.548;2023-03-01T00:28:42;1.60;59.60
78345;DHT22;67620;51.134;6.548;2023-03-01T00:31:19;1.60;59.50
78345;DHT22;67620;51.134;6.548;2023-03-01T00:33:45;1.60;59.50
78345;DHT22;67620;51.134;6.548;2023-03-01T00:36:13;1.50;59.60
78345;DHT22;67620;51.134;6.548;2023-03-01T00:38:41;1.50;59.70
78345;DHT22;67620;51.134;6.548;2023-03-01T00:41:09;1.50;59.60
78345;DHT22;67620;51.134;6.548;2023-03-01T00:43:35;1.50;59.60
78345;DHT22;67620;51.134;6.548;2023-03-01T00:46:04;1.50;59.80
78345;DHT22;67620;51.134;6.548;2023-03-01T00:48:29;1.50;59.70
78345;DHT22;67620;51.134;6.548;2023-03-01T00:50:55;1.50;59.70
78345;DHT22;67620;51.134;6.548;2023-03-01T00:53:21;1.50;59.90
78345;DHT22;67620;51.134;6.548;2023-03-01T00:55:46;1.40;60.00
78345;DHT22;67620;51.134;6.548;2023-03-01T00:58:12;1.40;60.10
78345;DHT22;67620;51.134;6.548;2023-03-01T01:00:37;1.40;60.00
78345;DHT22;67620;51.134;6.548;2023-03-01T01:03:03;1.30;60.00
78345;DHT22;67620;51.134;6.548;2023-03-01T01:05:28;1.30;60.20
78345;DHT22;67620;51.134;6.548;2023-03-01T01:07:54;1.20;60.30
78345;DHT22;67620;51.134;6.548;2023-03-01T01:10:19;1.20;60.40
78345;DHT22;67620;51.134;6.548;2023-03-01T01:12:45;1.20;60.20
78345;DHT22;67620;51.134;6.548;2023-03-01T01:15:11;1.10;60.60
78345;DHT22;67620;51.134;6.548;2023-03-01T01:17:39;1.20;60.70
78345;DHT22;67620;51.134;6.548;2023-03-01T01:20:05;1.20;60.90
78345;DHT22;67620;51.134;6.548;2023-03-01T01:22:31;1.20;60.90
78345;DHT22;67620;51.134;6.548;2023-03-01T01:24:56;1.20;60.60
78345;DHT22;67620;51.134;6.548;2023-03-01T01:27:22;1.20;60.80
78345;DHT22;67620;51.134;6.548;2023-03-01T01:29:47;1.20;60.70
78345;DHT22;67620;51.134;6.548;2023-03-01T01:32:13;1.20;60.80
78345;DHT22;67620;51.134;6.548;2023-03-01T01:34:38;1.20;60.80
78345;DHT22;67620;51.134;6.548;2023-03-01T01:37:04;1.20;60.90
78345;DHT22;67620;51.134;6.548;2023-03-01T01:39:33;1.20;61.10
78345;DHT22;67620;51.134;6.548;2023-03-01T01:42:00;1.20;61.00
78345;DHT22;67620;51.134;6.548;2023-03-01T01:44:27;1.20;61.20
78345;DHT22;67620;51.134;6.548;2023-03-01T01:46:57;1.20;61.20
78345;DHT22;67620;51.134;6.548;2023-03-01T01:49:45;1.20;61.20
78345;DHT22;67620;51.134;6.548;2023-03-01T01:52:34;1.10;61.20
78345;DHT22;67620;51.134;6.548;2023-03-01T01:55:11;1.00;61.30
78345;DHT22;67620;51.134;6.548;2023-03-01T01:57:43;0.90;61.30
78345;DHT22;67620;51.134;6.548;2023-03-01T02:00:17;0.90;61.30
78345;DHT22;67620;51.134;6.548;2023-03-01T02:02:43;0.90;61.30
78345;DHT22;67620;51.134;6.548;2023-03-01T02:05:16;0.90;61.30
78345;DHT22;67620;51.134;6.548;2023-03-01T02:07:46;0.90;61.30
78345;DHT22;67620;51.134;6.548;2023-03-01T02:10:12;0.80;61.40
78345;DHT22;67620;51.134;6.548;2023-03-01T02:12:38;0.80;61.40
78345;DHT22;67620;51.134;6.548;2023-03-01T02:15:04;0.70;61.30
78345;DHT22;67620;51.134;6.548;2023-03-01T02:17:30;0.60;61.60
78345;DHT22;67620;51.134;6.548;2023-03-01T02:22:53;0.60;61.80
78345;DHT22;67620;51.134;6.548;2023-03-01T02:25:34;0.50;61.50
78345;DHT22;67620;51.134;6.548;2023-03-01T02:30:39;0.40;61.90
78345;DHT22;67620;51.134;6.548;2023-03-01T02:33:26;0.50;62.00
78345;DHT22;67620;51.134;6.548;2023-03-01T02:35:54;0.50;62.00
78345;DHT22;67620;51.134;6.548;2023-03-01T02:38:21;0.50;62.20
78345;DHT22;67620;51.134;6.548;2023-03-01T02:40:49;0.50;62.60
78345;DHT22;67620;51.134;6.548;2023-03-01T02:43:16;0.50;62.70
78345;DHT22;67620;51.134;6.548;2023-03-01T02:45:50;0.60;62.80
78345;DHT22;67620;51.134;6.548;2023-03-01T02:48:17;0.50;62.80
78345;DHT22;67620;51.134;6.548;2023-03-01T02:51:02;0.60;62.90
78345;DHT22;67620;51.134;6.548;2023-03-01T02:53:43;0.60;62.80
78345;DHT22;67620;51.134;6.548;2023-03-01T02:56:10;0.60;62.80
78345;DHT22;67620;51.134;6.548;2023-03-01T02:58:41;0.60;62.60
78345;DHT22;67620;51.134;6.548;2023-03-01T03:01:10;0.60;62.90
78345;DHT22;67620;51.134;6.548;2023-03-01T03:03:36;0.50;63.10
78345;DHT22;67620;51.134;6.548;2023-03-01T03:06:01;0.50;63.00
78345;DHT22;67620;51.134;6.548;2023-03-01T03:08:27;0.50;62.90
78345;DHT22;67620;51.134;6.548;2023-03-01T03:10:52;0.50;63.10
78345;DHT22;67620;51.134;6.548;2023-03-01T03:13:18;0.50;63.10
78345;DHT22;67620;51.134;6.548;2023-03-01T03:15:44;0.40;62.90
78345;DHT22;67620;51.134;6.548;2023-03-01T03:18:13;0.50;62.70
78345;DHT22;67620;51.134;6.548;2023-03-01T03:20:40;0.40;62.70
78345;DHT22;67620;51.134;6.548;2023-03-01T03:23:06;0.30;63.10
78345;DHT22;67620;51.134;6.548;2023-03-01T03:25:32;0.40;63.20
78345;DHT22;67620;51.134;6.548;2023-03-01T03:27:57;0.40;62.80
78345;DHT22;67620;51.134;6.548;2023-03-01T03:30:32;0.40;63.10
78345;DHT22;67620;51.134;6.548;2023-03-01T03:32:58;0.30;63.50
78345;DHT22;67620;51.134;6.548;2023-03-01T03:35:25;0.30;63.80
78345;DHT22;67620;51.134;6.548;2023-03-01T03:37:52;0.30;63.80
78345;DHT22;67620;51.134;6.548;2023-03-01T03:40:37;0.40;63.70
78345;DHT22;67620;51.134;6.548;2023-03-01T03:43:06;0.30;63.80
78345;DHT22;67620;51.134;6.548;2023-03-01T03:45:32;0.30;63.80
78345;DHT22;67620;51.134;6.548;2023-03-01T03:47:59;0.30;63.80
78345;DHT22;67620;51.134;6.548;2023-03-01T03:50:25;0.30;63.90
78345;DHT22;67620;51.134;6.548;2023-03-01T03:52:50;0.30;63.70
78345;DHT22;67620;51.134;6.548;2023-03-01T03:55:16;0.30;63.80
78345;DHT22;67620;51.134;6.548;2023-03-01T03:57:45;0.30;63.70
78345;DHT22;67620;51.134;6.548;2023-03-01T04:00:15;0.30;63.90
78345;DHT22;67620;51.134;6.548;2023-03-01T04:02:42;0.30;63.90
78345;DHT22;67620;51.134;6.548;2023-03-01T04:05:09;0.30;63.90
78345;DHT22;67620;51.134;6.548;2023-03-01T04:07:36;0.30;64.20
78345;DHT22;67620;51.134;6.548;2023-03-01T04:10:04;0.30;64.00
78345;DHT22;67620;51.134;6.548;2023-03-01T04:12:29;0.30;63.80
78345;DHT22;67620;51.134;6.548;2023-03-01T04:14:55;0.30;63.90
78345;DHT22;67620;51.134;6.548;2023-03-01T04:17:21;0.30;63.60
78345;DHT22;67620;51.134;6.548;2023-03-01T04:19:46;0.30;63.50
78345;DHT22;67620;51.134;6.548;2023-03-01T04:22:14;0.40;63.30
78345;DHT22;67620;51.134;6.548;2023-03-01T04:24:43;0.40;63.30
78345;DHT22;67620;51.134;6.548;2023-03-01T04:27:10;0.40;63.30
78345;DHT22;67620;51.134;6.548;2023-03-01T04:29:35;0.30;63.40
78345;DHT22;67620;51.134;6.548;2023-03-01T04:32:01;0.30;63.50
78345;DHT22;67620;51.134;6.548;2023-03-01T04:34:26;0.20;64.00
78345;DHT22;67620;51.134;6.548;2023-03-01T04:36:52;0.20;64.20
78345;DHT22;67620;51.134;6.548;2023-03-01T04:39:18;0.30;63.90
78345;DHT22;67620;51.134;6.548;2023-03-01T04:41:43;0.30;63.80
78345;DHT22;67620;51.134;6.548;2023-03-01T04:44:09;0.20;64.10
78345;DHT22;67620;51.134;6.548;2023-03-01T04:46:35;0.20;64.30
78345;DHT22;67620;51.134;6.548;2023-03-01T04:49:02;0.10;64.30
78345;DHT22;67620;51.134;6.548;2023-03-01T04:51:28;0.10;64.40
78345;DHT22;67620;51.134;6.548;2023-03-01T04:53:54;0.10;64.20
78345;DHT22;67620;51.134;6.548;2023-03-01T04:56:20;0.10;64.40
78345;DHT22;67620;51.134;6.548;2023-03-01T04:58:48;0.10;64.40
78345;DHT22;67620;51.134;6.548;2023-03-01T05:01:16;0.10;64.40
78345;DHT22;67620;51.134;6.548;2023-03-01T05:03:47;0.10;64.30
78345;DHT22;67620;51.134;6.548;2023-03-01T05:06:13;0.10;64.30
78345;DHT22;67620;51.134;6.548;2023-03-01T05:08:40;0.10;64.20
78345;DHT22;67620;51.134;6.548;2023-03-01T05:11:06;0.10;64.20
78345;DHT22;67620;51.134;6.548;2023-03-01T05:13:35;0.10;64.20
78345;DHT22;67620;51.134;6.548;2023-03-01T05:16:02;0.10;64.10
78345;DHT22;67620;51.134;6.548;2023-03-01T05:18:29;0.10;64.30
78345;DHT22;67620;51.134;6.548;2023-03-01T05:21:01;0.00;64.40
78345;DHT22;67620;51.134;6.548;2023-03-01T05:23:26;0.00;64.30
78345;DHT22;67620;51.134;6.548;2023-03-01T05:25:52;0.00;64.20
78345;DHT22;67620;51.134;6.548;2023-03-01T05:28:19;-0.10;64.70
78345;DHT22;67620;51.134;6.548;2023-03-01T05:30:45;-0.10;64.50
78345;DHT22;67620;51.134;6.548;2023-03-01T05:33:11;0.00;64.30
78345;DHT22;67620;51.134;6.548;2023-03-01T05:35:41;0.00;64.20
78345;DHT22;67620;51.134;6.548;2023-03-01T05:38:08;0.00;64.20
78345;DHT22;67620;51.134;6.548;2023-03-01T05:40:34;0.00;64.20
78345;DHT22;67620;51.134;6.548;2023-03-01T05:43:00;0.00;64.30
78345;DHT22;67620;51.134;6.548;2023-03-01T05:45:26;0.00;64.00
78345;DHT22;67620;51.134;6.548;2023-03-01T05:47:53;0.00;64.30
78345;DHT22;67620;51.134;6.548;2023-03-01T05:50:22;0.00;64.10
78345;DHT22;67620;51.134;6.548;2023-03-01T05:52:51;0.00;63.90
78345;DHT22;67620;51.134;6.548;2023-03-01T05:55:18;0.00;63.60
78345;DHT22;67620;51.134;6.548;2023-03-01T05:57:45;-0.10;63.60
78345;DHT22;67620;51.134;6.548;2023-03-01T06:00:12;-0.20;63.70
78345;DHT22;67620;51.134;6.548;2023-03-01T06:02:38;-0.10;63.70
78345;DHT22;67620;51.134;6.548;2023-03-01T06:05:05;-0.20;63.30
78345;DHT22;67620;51.134;6.548;2023-03-01T06:07:31;-0.20;63.50
78345;DHT22;67620;51.134;6.548;2023-03-01T06:09:57;-0.30;63.40
78345;DHT22;67620;51.134;6.548;2023-03-01T06:12:23;-0.40;63.90
78345;DHT22;67620;51.134;6.548;2023-03-01T06:14:48;-0.40;63.60
78345;DHT22;67620;51.134;6.548;2023-03-01T06:17:14;-0.40;63.40
78345;DHT22;67620;51.134;6.548;2023-03-01T06:19:39;-0.40;63.00
78345;DHT22;67620;51.134;6.548;2023-03-01T06:22:05;-0.50;63.00
78345;DHT22;67620;51.134;6.548;2023-03-01T06:24:30;-0.50;63.10
78345;DHT22;67620;51.134;6.548;2023-03-01T06:26:56;-0.50;63.30
78345;DHT22;67620;51.134;6.548;2023-03-01T06:29:21;-0.60;63.30
78345;DHT22;67620;51.134;6.548;2023-03-01T06:31:48;-0.60;63.20
78345;DHT22;67620;51.134;6.548;2023-03-01T06:34:14;-0.60;63.30
78345;DHT22;67620;51.134;6.548;2023-03-01T06:36:40;-0.60;63.50
78345;DHT22;67620;51.134;6.548;2023-03-01T06:39:05;-0.60;63.50
78345;DHT22;67620;51.134;6.548;2023-03-01T06:41:31;-0.60;63.70
78345;DHT22;67620;51.134;6.548;2023-03-01T06:43:58;-0.60;63.40
78345;DHT22;67620;51.134;6.548;2023-03-01T06:46:24;-0.70;63.60
78345;DHT22;67620;51.134;6.548;2023-03-01T06:48:49;-0.70;63.70
78345;DHT22;67620;51.134;6.548;2023-03-01T06:51:15;-0.70;63.80
78345;DHT22;67620;51.134;6.548;2023-03-01T06:53:40;-0.80;63.50
78345;DHT22;67620;51.134;6.548;2023-03-01T06:56:06;-0.80;63.80
78345;DHT22;67620;51.134;6.548;2023-03-01T06:58:31;-0.70;64.00
78345;DHT22;67620;51.134;6.548;2023-03-01T07:00:57;-0.80;64.30
78345;DHT22;67620;51.134;6.548;2023-03-01T07:03:23;-0.70;64.00
78345;DHT22;67620;51.134;6.548;2023-03-01T07:05:49;-0.70;64.20
78345;DHT22;67620;51.134;6.548;2023-03-01T07:08:17;-0.70;64.60
78345;DHT22;67620;51.134;6.548;2023-03-01T07:10:43;-0.70;64.80
78345;DHT22;67620;51.134;6.548;2023-03-01T07:13:08;-0.70;64.80
78345;DHT22;67620;51.134;6.548;2023-03-01T07:15:34;-0.70;65.00
78345;DHT22;67620;51.134;6.548;2023-03-01T07:17:59;-0.60;65.60
78345;DHT22;67620;51.134;6.548;2023-03-01T07:20:25;-0.60;65.80
78345;DHT22;67620;51.134;6.548;2023-03-01T07:22:55;-0.60;66.20
78345;DHT22;67620;51.134;6.548;2023-03-01T07:25:21;-0.60;66.00
78345;DHT22;67620;51.134;6.548;2023-03-01T07:27:51;-0.50;66.70
78345;DHT22;67620;51.134;6.548;2023-03-01T07:30:17;-0.50;66.70
78345;DHT22;67620;51.134;6.548;2023-03-01T07:32:43;-0.50;66.70
78345;DHT22;67620;51.134;6.548;2023-03-01T07:35:08;-0.40;66.60
78345;DHT22;67620;51.134;6.548;2023-03-01T07:37:34;-0.30;66.60
78345;DHT22;67620;51.134;6.548;2023-03-01T07:39:59;-0.30;66.80
78345;DHT22;67620;51.134;6.548;2023-03-01T07:42:25;-0.20;66.40
78345;DHT22;67620;51.134;6.548;2023-03-01T07:44:50;-0.10;66.10
78345;DHT22;67620;51.134;6.548;2023-03-01T07:47:16;0.00;65.90
78345;DHT22;67620;51.134;6.548;2023-03-01T07:49:41;0.10;65.80
78345;DHT22;67620;51.134;6.548;2023-03-01T07:52:10;0.20;65.60
78345;DHT22;67620;51.134;6.548;2023-03-01T07:54:36;0.20;65.70
78345;DHT22;67620;51.134;6.548;2023-03-01T07:57:01;0.30;65.60
78345;DHT22;67620;51.134;6.548;2023-03-01T07:59:27;0.40;65.50
78345;DHT22;67620;51.134;6.548;2023-03-01T08:01:55;0.50;65.30
78345;DHT22;67620;51.134;6.548;2023-03-01T08:04:21;0.60;65.20
78345;DHT22;67620;51.134;6.548;2023-03-01T08:06:46;0.70;65.10
78345;DHT22;67620;51.134;6.548;2023-03-01T08:09:12;0.80;64.70
78345;DHT22;67620;51.134;6.548;2023-03-01T08:11:38;2.20;62.30
78345;DHT22;67620;51.134;6.548;2023-03-01T08:14:03;4.50;55.10
78345;DHT22;67620;51.134;6.548;2023-03-01T08:16:29;5.70;50.80
78345;DHT22;67620;51.134;6.548;2023-03-01T08:18:54;4.20;53.70
78345;DHT22;67620;51.134;6.548;2023-03-01T08:21:22;3.00;57.20
78345;DHT22;67620;51.134;6.548;2023-03-01T08:23:47;2.50;58.80
78345;DHT22;67620;51.134;6.548;2023-03-01T08:26:20;2.30;60.20
78345;DHT22;67620;51.134;6.548;2023-03-01T08:28:47;2.70;59.80
78345;DHT22;67620;51.134;6.548;2023-03-01T08:31:18;5.40;53.20
78345;DHT22;67620;51.134;6.548;2023-03-01T08:33:45;7.40;48.00
78345;DHT22;67620;51.134;6.548;2023-03-01T08:36:16;8.60;45.00
78345;DHT22;67620;51.134;6.548;2023-03-01T08:38:42;9.40;43.30
78345;DHT22;67620;51.134;6.548;2023-03-01T08:41:07;10.00;42.50
78345;DHT22;67620;51.134;6.548;2023-03-01T08:43:33;10.40;40.90
78345;DHT22;67620;51.134;6.548;2023-03-01T08:45:58;10.70;40.20
78345;DHT22;67620;51.134;6.548;2023-03-01T08:48:24;11.20;39.60
78345;DHT22;67620;51.134;6.548;2023-03-01T08:50:50;11.60;38.60
78345;DHT22;67620;51.134;6.548;2023-03-01T08:53:15;12.00;38.00
78345;DHT22;67620;51.134;6.548;2023-03-01T08:55:41;12.40;37.20
78345;DHT22;67620;51.134;6.548;2023-03-01T08:58:06;12.80;36.70
78345;DHT22;67620;51.134;6.548;2023-03-01T09:00:32;13.20;35.90
78345;DHT22;67620;51.134;6.548;2023-03-01T09:03:00;13.40;35.30
78345;DHT22;67620;51.134;6.548;2023-03-01T09:05:25;13.70;34.90
78345;DHT22;67620;51.134;6.548;2023-03-01T09:07:51;14.10;34.30
78345;DHT22;67620;51.134;6.548;2023-03-01T09:10:16;14.30;33.80
78345;DHT22;67620;51.134;6.548;2023-03-01T09:12:42;14.80;33.20
78345;DHT22;67620;51.134;6.548;2023-03-01T09:15:08;14.80;33.00
78345;DHT22;67620;51.134;6.548;2023-03-01T09:17:34;14.30;33.30
78345;DHT22;67620;51.134;6.548;2023-03-01T09:19:59;12.00;36.40
78345;DHT22;67620;51.134;6.548;2023-03-01T09:22:25;10.20;39.40
78345;DHT22;67620;51.134;6.548;2023-03-01T09:24:51;9.30;41.80
78345;DHT22;67620;51.134;6.548;2023-03-01T09:27:16;8.80;42.00
78345;DHT22;67620;51.134;6.548;2023-03-01T09:29:44;8.50;43.50
78345;DHT22;67620;51.134;6.548;2023-03-01T09:32:10;8.30;43.80
78345;DHT22;67620;51.134;6.548;2023-03-01T09:34:35;8.20;44.00
78345;DHT22;67620;51.134;6.548;2023-03-01T09:37:24;8.10;44.60
78345;DHT22;67620;51.134;6.548;2023-03-01T09:39:49;7.90;45.30
78345;DHT22;67620;51.134;6.548;2023-03-01T09:42:15;7.90;45.50
78345;DHT22;67620;51.134;6.548;2023-03-01T09:44:48;7.90;45.60
78345;DHT22;67620;51.134;6.548;2023-03-01T09:47:27;7.70;45.50
78345;DHT22;67620;51.134;6.548;2023-03-01T09:50:14;7.70;45.40
78345;DHT22;67620;51.134;6.548;2023-03-01T09:52:49;7.80;45.50
78345;DHT22;67620;51.134;6.548;2023-03-01T09:55:26;7.70;44.50
78345;DHT22;67620;51.134;6.548;2023-03-01T09:58:00;7.70;43.30
78345;DHT22;67620;51.134;6.548;2023-03-01T10:00:41;7.60;44.60
78345;DHT22;67620;51.134;6.548;2023-03-01T10:03:26;7.70;44.80
78345;DHT22;67620;51.134;6.548;2023-03-01T10:06:01;7.60;43.50
78345;DHT22;67620;51.134;6.548;2023-03-01T10:08:46;7.20;44.40
78345;DHT22;67620;51.134;6.548;2023-03-01T10:11:22;7.40;44.90
78345;DHT22;67620;51.134;6.548;2023-03-01T10:13:54;7.60;44.70
78345;DHT22;67620;51.134;6.548;2023-03-01T10:16:28;7.60;44.40
78345;DHT22;67620;51.134;6.548;2023-03-01T10:19:01;7.40;43.50
78345;DHT22;67620;51.134;6.548;2023-03-01T10:21:28;7.10;44.70
78345;DHT22;67620;51.134;6.548;2023-03-01T10:24:07;7.20;45.70
78345;DHT22;67620;51.134;6.548;2023-03-01T10:26:56;7.40;44.60
78345;DHT22;67620;51.134;6.548;2023-03-01T10:29:58;7.40;44.60
78345;DHT22;67620;51.134;6.548;2023-03-01T10:32:26;7.50;44.80
78345;DHT22;67620;51.134;6.548;2023-03-01T10:34:51;7.50;44.20
78345;DHT22;67620;51.134;6.548;2023-03-01T10:37:19;7.60;43.80
78345;DHT22;67620;51.134;6.548;2023-03-01T10:40:08;7.60;42.80
78345;DHT22;67620;51.134;6.548;2023-03-01T10:42:39;7.50;43.20
78345;DHT22;67620;51.134;6.548;2023-03-01T10:48:19;7.50;42.30
78345;DHT22;67620;51.134;6.548;2023-03-01T10:51:06;7.50;43.10
78345;DHT22;67620;51.134;6.548;2023-03-01T10:53:40;7.50;42.50
78345;DHT22;67620;51.134;6.548;2023-03-01T10:56:12;7.50;42.50
78345;DHT22;67620;51.134;6.548;2023-03-01T10:59:00;7.30;43.00
78345;DHT22;67620;51.134;6.548;2023-03-01T11:01:32;7.30;43.40
78345;DHT22;67620;51.134;6.548;2023-03-01T11:06:37;7.60;42.90
78345;DHT22;67620;51.134;6.548;2023-03-01T11:09:19;7.50;42.60
78345;DHT22;67620;51.134;6.548;2023-03-01T11:11:45;7.60;42.00
78345;DHT22;67620;51.134;6.548;2023-03-01T11:14:21;7.60;42.70
78345;DHT22;67620;51.134;6.548;2023-03-01T11:16:49;7.60;43.00
78345;DHT22;67620;51.134;6.548;2023-03-01T11:19:23;7.50;42.90
78345;DHT22;67620;51.134;6.548;2023-03-01T11:21:55;7.20;42.30
78345;DHT22;67620;51.134;6.548;2023-03-01T11:24:40;7.10;42.20
78345;DHT22;67620;51.134;6.548;2023-03-01T11:29:45;7.20;43.20
78345;DHT22;67620;51.134;6.548;2023-03-01T11:32:13;7.40;42.80
78345;DHT22;67620;51.134;6.548;2023-03-01T11:35:00;7.60;42.10
78345;DHT22;67620;51.134;6.548;2023-03-01T11:40:37;7.60;41.30
78345;DHT22;67620;51.134;6.548;2023-03-01T11:43:13;7.60;42.30
78345;DHT22;67620;51.134;6.548;2023-03-01T11:46:02;7.40;40.90
78345;DHT22;67620;51.134;6.548;2023-03-01T11:48:44;7.50;42.10
78345;DHT22;67620;51.134;6.548;2023-03-01T11:51:41;7.60;42.30
78345;DHT22;67620;51.134;6.548;2023-03-01T11:56:55;7.60;41.90
78345;DHT22;67620;51.134;6.548;2023-03-01T11:59:48;7.60;42.00
78345;DHT22;67620;51.134;6.548;2023-03-01T12:13:10;7.80;42.50
78345;DHT22;67620;51.134;6.548;2023-03-01T12:18:33;7.80;41.90
78345;DHT22;67620;51.134;6.548;2023-03-01T12:21:23;7.80;42.70
78345;DHT22;67620;51.134;6.548;2023-03-01T12:34:55;7.90;41.70
78345;DHT22;67620;51.134;6.548;2023-03-01T12:37:32;7.90;42.70
78345;DHT22;67620;51.134;6.548;2023-03-01T12:42:51;8.00;42.40
78345;DHT22;67620;51.134;6.548;2023-03-01T12:45:40;8.00;42.30
78345;DHT22;67620;51.134;6.548;2023-03-01T12:48:40;7.90;41.00
78345;DHT22;67620;51.134;6.548;2023-03-01T12:51:10;7.90;41.10
78345;DHT22;67620;51.134;6.548;2023-03-01T12:53:41;8.00;42.00
78345;DHT22;67620;51.134;6.548;2023-03-01T12:56:15;8.00;41.90
78345;DHT22;67620;51.134;6.548;2023-03-01T13:01:33;8.00;42.30
78345;DHT22;67620;51.134;6.548;2023-03-01T13:06:52;8.00;41.90
78345;DHT22;67620;51.134;6.548;2023-03-01T13:11:53;7.90;41.50
78345;DHT22;67620;51.134;6.548;2023-03-01T13:14:35;8.00;42.10
78345;DHT22;67620;51.134;6.548;2023-03-01T13:17:01;8.00;42.00
78345;DHT22;67620;51.134;6.548;2023-03-01T13:19:28;8.00;41.60
78345;DHT22;67620;51.134;6.548;2023-03-01T13:22:29;8.10;41.40
78345;DHT22;67620;51.134;6.548;2023-03-01T13:25:10;8.00;41.50
78345;DHT22;67620;51.134;6.548;2023-03-01T13:27:36;8.10;42.20
78345;DHT22;67620;51.134;6.548;2023-03-01T13:30:02;8.10;42.10
78345;DHT22;67620;51.134;6.548;2023-03-01T13:32:36;8.00;41.30
78345;DHT22;67620;51.134;6.548;2023-03-01T13:37:40;8.00;41.30
78345;DHT22;67620;51.134;6.548;2023-03-01T13:42:55;8.00;40.70
78345;DHT22;67620;51.134;6.548;2023-03-01T13:47:58;8.00;41.30
78345;DHT22;67620;51.134;6.548;2023-03-01T13:50:28;8.00;41.60
78345;DHT22;67620;51.134;6.548;2023-03-01T13:53:03;8.00;41.20
78345;DHT22;67620;51.134;6.548;2023-03-01T13:55:44;8.00;40.90
78345;DHT22;67620;51.134;6.548;2023-03-01T14:01:04;7.90;40.80
78345;DHT22;67620;51.134;6.548;2023-03-01T14:03:31;7.90;41.20
78345;DHT22;67620;51.134;6.548;2023-03-01T14:05:59;7.90;41.50
78345;DHT22;67620;51.134;6.548;2023-03-01T14:08:28;8.00;41.20
78345;DHT22;67620;51.134;6.548;2023-03-01T14:14:14;7.90;41.00
78345;DHT22;67620;51.134;6.548;2023-03-01T14:19:34;7.90;40.30
78345;DHT22;67620;51.134;6.548;2023-03-01T14:22:29;7.80;40.50
78345;DHT22;67620;51.134;6.548;2023-03-01T14:24:58;7.80;40.60
78345;DHT22;67620;51.134;6.548;2023-03-01T14:27:35;7.80;40.70
78345;DHT22;67620;51.134;6.548;2023-03-01T14:30:13;7.80;40.90
78345;DHT22;67620;51.134;6.548;2023-03-01T14:32:39;7.80;42.00
78345;DHT22;67620;51.134;6.548;2023-03-01T14:35:29;7.80;41.90
78345;DHT22;67620;51.134;6.548;2023-03-01T14:37:55;7.80;41.80
78345;DHT22;67620;51.134;6.548;2023-03-01T14:40:24;7.80;41.10
78345;DHT22;67620;51.134;6.548;2023-03-01T14:42:50;7.80;40.90
78345;DHT22;67620;51.134;6.548;2023-03-01T14:45:16;7.80;42.60
78345;DHT22;67620;51.134;6.548;2023-03-01T14:47:44;7.80;43.00
78345;DHT22;67620;51.134;6.548;2023-03-01T14:52:49;7.70;42.80
78345;DHT22;67620;51.134;6.548;2023-03-01T14:55:21;7.70;42.70
78345;DHT22;67620;51.134;6.548;2023-03-01T14:57:49;7.70;42.20
78345;DHT22;67620;51.134;6.548;2023-03-01T15:00:21;7.70;41.40
78345;DHT22;67620;51.134;6.548;2023-03-01T15:02:48;7.70;42.10
78345;DHT22;67620;51.134;6.548;2023-03-01T15:05:15;7.70;42.60
78345;DHT22;67620;51.134;6.548;2023-03-01T15:07:44;7.70;43.10
78345;DHT22;67620;51.134;6.548;2023-03-01T15:10:23;7.60;42.50
78345;DHT22;67620;51.134;6.548;2023-03-01T15:12:49;7.50;43.00
78345;DHT22;67620;51.134;6.548;2023-03-01T15:15:36;7.50;42.80
78345;DHT22;67620;51.134;6.548;2023-03-01T15:18:13;7.50;42.90
78345;DHT22;67620;51.134;6.548;2023-03-01T15:20:39;7.50;42.90
78345;DHT22;67620;51.134;6.548;2023-03-01T15:23:05;7.50;42.50
78345;DHT22;67620;51.134;6.548;2023-03-01T15:25:33;7.40;42.00
78345;DHT22;67620;51.134;6.548;2023-03-01T15:28:00;7.40;42.40
78345;DHT22;67620;51.134;6.548;2023-03-01T15:30:33;7.40;42.70
78345;DHT22;67620;51.134;6.548;2023-03-01T15:33:25;7.40;43.00
78345;DHT22;67620;51.134;6.548;2023-03-01T15:35:55;7.30;42.60
78345;DHT22;67620;51.134;6.548;2023-03-01T15:38:54;7.30;42.80
78345;DHT22;67620;51.134;6.548;2023-03-01T15:41:25;7.30;43.60
78345;DHT22;67620;51.134;6.548;2023-03-01T15:43:51;7.30;44.40
78345;DHT22;67620;51.134;6.548;2023-03-01T15:46:34;7.30;44.30
78345;DHT22;67620;51.134;6.548;2023-03-01T15:49:05;7.30;43.90
78345;DHT22;67620;51.134;6.548;2023-03-01T15:51:43;7.20;43.90
78345;DHT22;67620;51.134;6.548;2023-03-01T15:54:27;7.20;43.50
78345;DHT22;67620;51.134;6.548;2023-03-01T15:56:53;7.20;44.10
78345;DHT22;67620;51.134;6.548;2023-03-01T15:59:18;7.10;44.30
78345;DHT22;67620;51.134;6.548;2023-03-01T16:01:45;7.10;44.80
78345;DHT22;67620;51.134;6.548;2023-03-01T16:04:12;7.10;44.90
78345;DHT22;67620;51.134;6.548;2023-03-01T16:06:51;7.10;44.90
78345;DHT22;67620;51.134;6.548;2023-03-01T16:09:25;7.10;43.80
78345;DHT22;67620;51.134;6.548;2023-03-01T16:11:52;7.00;43.90
78345;DHT22;67620;51.134;6.548;2023-03-01T16:14:18;7.00;43.20
78345;DHT22;67620;51.134;6.548;2023-03-01T16:16:44;7.00;42.90
78345;DHT22;67620;51.134;6.548;2023-03-01T16:19:10;6.90;43.60
78345;DHT22;67620;51.134;6.548;2023-03-01T16:21:36;6.90;43.20
78345;DHT22;67620;51.134;6.548;2023-03-01T16:24:01;6.90;43.60
78345;DHT22;67620;51.134;6.548;2023-03-01T16:26:27;6.90;43.60
78345;DHT22;67620;51.134;6.548;2023-03-01T16:28:55;6.80;43.90
78345;DHT22;67620;51.134;6.548;2023-03-01T16:31:21;6.70;43.40
78345;DHT22;67620;51.134;6.548;2023-03-01T16:33:47;6.70;43.70
78345;DHT22;67620;51.134;6.548;2023-03-01T16:36:18;6.70;44.00
78345;DHT22;67620;51.134;6.548;2023-03-01T16:38:43;6.70;44.10
78345;DHT22;67620;51.134;6.548;2023-03-01T16:41:15;6.70;44.20
78345;DHT22;67620;51.134;6.548;2023-03-01T16:43:41;6.60;44.50
78345;DHT22;67620;51.134;6.548;2023-03-01T16:46:12;6.70;44.20
78345;DHT22;67620;51.134;6.548;2023-03-01T16:48:38;6.60;44.20
78345;DHT22;67620;51.134;6.548;2023-03-01T16:51:05;6.60;45.00
78345;DHT22;67620;51.134;6.548;2023-03-01T16:53:31;6.60;44.50
78345;DHT22;67620;51.134;6.548;2023-03-01T16:55:57;6.50;44.30
78345;DHT22;67620;51.134;6.548;2023-03-01T16:58:23;6.50;43.20
78345;DHT22;67620;51.134;6.548;2023-03-01T17:00:50;6.50;43.50
78345;DHT22;67620;51.134;6.548;2023-03-01T17:03:16;6.40;43.40
78345;DHT22;67620;51.134;6.548;2023-03-01T17:05:42;6.40;43.30
78345;DHT22;67620;51.134;6.548;2023-03-01T17:08:08;6.30;43.50
78345;DHT22;67620;51.134;6.548;2023-03-01T17:10:33;6.30;43.70
78345;DHT22;67620;51.134;6.548;2023-03-01T17:12:59;6.30;43.80